sensor_id;sensor_type;location;lat;lon;timestamp;pressure;altitude;pressure_sealevel;temperature;humidity
30949;BME280;17637;51.984;21.208;2022-11-20T00:01:19;100012.34;;;-6.36;71.17
30949;BME280;17637;51.984;21.208;2022-11-20T00:03:47;99256.16;;;-10.90;71.01
30949;BME280;17637;51.984;21.208;2022-11-20T00:06:16;100222.44;;;-5.10;71.28
30949;BME280;17637;51.984;21.208;2022-11-20T00:08:44;100221.50;;;-5.13;71.26
30949;BME280;17637;51.984;21.208;2022-11-20T00:11:14;100219.06;;;-5.09;71.16
30949;BME280;17637;51.984;21.208;2022-11-20T00:13:46;100166.47;;;-5.35;71.12
30949;BME280;17637;51.984;21.208;2022-11-20T00:16:16;100212.13;;;-5.14;71.42
30949;BME280;17637;51.984;21.208;2022-11-20T00:18:44;100217.25;;;-5.14;71.28
30949;BME280;17637;51.984;21.208;2022-11-20T00:21:13;99893.53;;;-6.95;70.48
30949;BME280;17637;51.984;21.208;2022-11-20T00:23:41;100027.25;;;-6.20;70.85
30949;BME280;17637;51.984;21.208;2022-11-20T00:26:12;99668.09;;;-8.36;70.79
30949;BME280;17637;51.984;21.208;2022-11-20T00:28:40;99335.50;;;-10.62;70.61
30949;BME280;17637;51.984;21.208;2022-11-20T00:31:13;100179.94;;;-5.40;71.31
30949;BME280;17637;51.984;21.208;2022-11-20T00:33:41;100207.47;;;-5.28;71.68
30949;BME280;17637;51.984;21.208;2022-11-20T00:36:15;99674.75;;;-8.67;71.02
30949;BME280;17637;51.984;21.208;2022-11-20T00:38:42;100205.00;;;-5.25;71.33
30949;BME280;17637;51.984;21.208;2022-11-20T00:41:12;100208.25;;;-5.31;71.52
30949;BME280;17637;51.984;21.208;2022-11-20T00:43:40;100213.22;;;-5.36;71.48
30949;BME280;17637;51.984;21.208;2022-11-20T00:46:19;100199.56;;;-5.38;71.58
30949;BME280;17637;51.984;21.208;2022-11-20T00:48:46;100205.44;;;-5.40;71.67
30949;BME280;17637;51.984;21.208;2022-11-20T00:51:17;99085.47;;;-12.28;71.02
30949;BME280;17637;51.984;21.208;2022-11-20T00:53:44;98933.00;;;-13.06;71.44
30949;BME280;17637;51.984;21.208;2022-11-20T00:56:13;98803.41;;;-13.84;71.23
30949;BME280;17637;51.984;21.208;2022-11-20T00:58:42;100216.22;;;-5.50;72.09
30949;BME280;17637;51.984;21.208;2022-11-20T01:01:18;100189.94;;;-5.48;72.12
30949;BME280;17637;51.984;21.208;2022-11-20T01:03:49;100193.34;;;-5.47;72.14
30949;BME280;17637;51.984;21.208;2022-11-20T01:06:25;100185.84;;;-5.41;71.93
30949;BME280;17637;51.984;21.208;2022-11-20T01:08:55;100189.16;;;-5.45;72.06
30949;BME280;17637;51.984;21.208;2022-11-20T01:11:28;100159.94;;;-5.85;71.94
30949;BME280;17637;51.984;21.208;2022-11-20T01:13:56;100193.34;;;-5.47;71.91
30949;BME280;17637;51.984;21.208;2022-11-20T01:16:26;100209.59;;;-5.72;71.93
30949;BME280;17637;51.984;21.208;2022-11-20T01:18:57;100178.47;;;-5.62;72.45
30949;BME280;17637;51.984;21.208;2022-11-20T01:21:25;100187.25;;;-5.52;72.17
30949;BME280;17637;51.984;21.208;2022-11-20T01:23:53;100041.59;;;-6.52;72.08
30949;BME280;17637;51.984;21.208;2022-11-20T01:26:23;99770.59;;;-8.07;71.85
30949;BME280;17637;51.984;21.208;2022-11-20T01:28:50;99741.97;;;-8.01;71.94
30949;BME280;17637;51.984;21.208;2022-11-20T01:31:24;100165.22;;;-5.49;72.02
30949;BME280;17637;51.984;21.208;2022-11-20T01:33:54;99942.13;;;-6.86;71.77
30949;BME280;17637;51.984;21.208;2022-11-20T01:36:23;100212.84;;;-5.49;72.28
30949;BME280;17637;51.984;21.208;2022-11-20T01:38:52;100159.91;;;-5.57;72.57
30949;BME280;17637;51.984;21.208;2022-11-20T01:41:21;100053.34;;;-6.29;72.32
30949;BME280;17637;51.984;21.208;2022-11-20T01:44:08;99875.38;;;-7.61;72.18
30949;BME280;17637;51.984;21.208;2022-11-20T01:46:38;99589.72;;;-9.07;71.98
30949;BME280;17637;51.984;21.208;2022-11-20T01:51:50;99269.28;;;-11.00;72.06
30949;BME280;17637;51.984;21.208;2022-11-20T01:54:23;100179.31;;;-5.62;72.62
30949;BME280;17637;51.984;21.208;2022-11-20T01:56:55;99953.06;;;-6.90;72.44
30949;BME280;17637;51.984;21.208;2022-11-20T01:59:26;100171.53;;;-5.66;72.84
30949;BME280;17637;51.984;21.208;2022-11-20T02:01:55;99835.56;;;-7.88;72.36
30949;BME280;17637;51.984;21.208;2022-11-20T02:04:23;99927.97;;;-7.06;72.61
30949;BME280;17637;51.984;21.208;2022-11-20T02:06:57;99581.84;;;-9.16;72.54
30949;BME280;17637;51.984;21.208;2022-11-20T02:09:27;99807.94;;;-7.77;72.51
30949;BME280;17637;51.984;21.208;2022-11-20T02:11:54;100161.47;;;-5.62;72.69
30949;BME280;17637;51.984;21.208;2022-11-20T02:14:22;99648.59;;;-8.91;72.42
30949;BME280;17637;51.984;21.208;2022-11-20T02:16:50;99613.59;;;-9.02;72.87
30949;BME280;17637;51.984;21.208;2022-11-20T02:19:27;100153.47;;;-5.74;73.03
30949;BME280;17637;51.984;21.208;2022-11-20T02:24:24;100091.06;;;-6.17;72.72
30949;BME280;17637;51.984;21.208;2022-11-20T02:27:03;100174.56;;;-5.80;73.05
30949;BME280;17637;51.984;21.208;2022-11-20T02:29:39;100151.81;;;-5.72;72.91
30949;BME280;17637;51.984;21.208;2022-11-20T02:34:45;100167.13;;;-5.72;72.94
30949;BME280;17637;51.984;21.208;2022-11-20T02:37:13;100152.97;;;-5.91;73.08
30949;BME280;17637;51.984;21.208;2022-11-20T02:39:41;100065.75;;;-6.68;72.71
30949;BME280;17637;51.984;21.208;2022-11-20T02:42:09;100164.38;;;-6.08;73.09
30949;BME280;17637;51.984;21.208;2022-11-20T02:44:36;100017.06;;;-6.77;73.14
30949;BME280;17637;51.984;21.208;2022-11-20T02:47:03;99724.38;;;-8.51;72.52
30949;BME280;17637;51.984;21.208;2022-11-20T02:49:30;100159.56;;;-5.69;72.84
30949;BME280;17637;51.984;21.208;2022-11-20T02:51:58;100157.00;;;-5.69;73.01
30949;BME280;17637;51.984;21.208;2022-11-20T02:54:25;100022.75;;;-7.39;72.95
30949;BME280;17637;51.984;21.208;2022-11-20T02:56:52;100049.50;;;-6.43;73.17
30949;BME280;17637;51.984;21.208;2022-11-20T02:59:19;99828.72;;;-7.63;72.79
30949;BME280;17637;51.984;21.208;2022-11-20T03:01:47;100195.25;;;-5.69;72.82
30949;BME280;17637;51.984;21.208;2022-11-20T03:04:14;100213.19;;;-5.66;72.90
30949;BME280;17637;51.984;21.208;2022-11-20T03:06:41;99897.72;;;-7.24;72.82
30949;BME280;17637;51.984;21.208;2022-11-20T03:09:08;100162.97;;;-5.68;72.67
30949;BME280;17637;51.984;21.208;2022-11-20T03:11:35;99043.81;;;-12.40;72.45
30949;BME280;17637;51.984;21.208;2022-11-20T03:14:05;99829.81;;;-7.82;72.51
30949;BME280;17637;51.984;21.208;2022-11-20T03:16:32;100195.91;;;-5.76;73.17
30949;BME280;17637;51.984;21.208;2022-11-20T03:19:00;100165.44;;;-5.71;72.77
30949;BME280;17637;51.984;21.208;2022-11-20T03:21:27;98534.19;;;-15.67;71.82
30949;BME280;17637;51.984;21.208;2022-11-20T03:23:54;99967.91;;;-7.03;72.60
30949;BME280;17637;51.984;21.208;2022-11-20T03:26:23;100164.47;;;-5.75;72.90
30949;BME280;17637;51.984;21.208;2022-11-20T03:28:53;100160.00;;;-5.82;72.96
30949;BME280;17637;51.984;21.208;2022-11-20T03:31:26;100155.03;;;-5.78;72.69
30949;BME280;17637;51.984;21.208;2022-11-20T03:33:54;100155.81;;;-5.80;72.89
30949;BME280;17637;51.984;21.208;2022-11-20T03:36:21;100165.09;;;-5.84;72.89
30949;BME280;17637;51.984;21.208;2022-11-20T03:38:48;100153.06;;;-5.88;72.83
30949;BME280;17637;51.984;21.208;2022-11-20T03:41:22;100156.56;;;-5.84;72.62
30949;BME280;17637;51.984;21.208;2022-11-20T03:44:01;99967.13;;;-7.01;72.65
30949;BME280;17637;51.984;21.208;2022-11-20T03:46:29;99854.44;;;-8.07;72.32
30949;BME280;17637;51.984;21.208;2022-11-20T03:48:56;100129.59;;;-6.35;72.72
30949;BME280;17637;51.984;21.208;2022-11-20T03:51:26;100147.88;;;-5.91;72.61
30949;BME280;17637;51.984;21.208;2022-11-20T03:53:56;100146.84;;;-5.97;72.69
30949;BME280;17637;51.984;21.208;2022-11-20T03:56:28;99660.59;;;-8.86;72.73
30949;BME280;17637;51.984;21.208;2022-11-20T03:58:56;100062.09;;;-6.48;72.58
30949;BME280;17637;51.984;21.208;2022-11-20T04:01:25;100091.25;;;-6.39;72.77
30949;BME280;17637;51.984;21.208;2022-11-20T04:03:54;100155.34;;;-5.98;72.80
30949;BME280;17637;51.984;21.208;2022-11-20T04:06:24;100157.81;;;-6.00;72.81
30949;BME280;17637;51.984;21.208;2022-11-20T04:08:54;100149.41;;;-5.97;72.92
30949;BME280;17637;51.984;21.208;2022-11-20T04:11:26;100153.41;;;-6.06;73.16
30949;BME280;17637;51.984;21.208;2022-11-20T04:14:01;100170.41;;;-6.33;73.13
30949;BME280;17637;51.984;21.208;2022-11-20T04:16:35;100188.97;;;-6.10;72.98
30949;BME280;17637;51.984;21.208;2022-11-20T04:19:05;100143.03;;;-6.12;72.79
30949;BME280;17637;51.984;21.208;2022-11-20T04:21:32;100074.78;;;-7.03;72.71
30949;BME280;17637;51.984;21.208;2022-11-20T04:23:59;99980.72;;;-7.28;72.83
30949;BME280;17637;51.984;21.208;2022-11-20T04:26:27;100168.50;;;-6.12;72.75
30949;BME280;17637;51.984;21.208;2022-11-20T04:28:55;100264.41;;;-6.41;72.93
30949;BME280;17637;51.984;21.208;2022-11-20T04:31:24;99274.50;;;-11.44;72.65
30949;BME280;17637;51.984;21.208;2022-11-20T04:33:52;99794.34;;;-8.32;72.94
30949;BME280;17637;51.984;21.208;2022-11-20T04:36:24;100130.75;;;-6.25;73.20
30949;BME280;17637;51.984;21.208;2022-11-20T04:38:58;99673.75;;;-9.23;72.98
30949;BME280;17637;51.984;21.208;2022-11-20T04:41:29;98375.06;;;-17.56;72.14
30949;BME280;17637;51.984;21.208;2022-11-20T04:43:58;100117.72;;;-6.34;73.47
30949;BME280;17637;51.984;21.208;2022-11-20T04:46:37;100116.09;;;-6.32;73.19
30949;BME280;17637;51.984;21.208;2022-11-20T04:49:05;100113.56;;;-6.31;73.15
30949;BME280;17637;51.984;21.208;2022-11-20T04:51:33;100094.13;;;-6.56;73.11
30949;BME280;17637;51.984;21.208;2022-11-20T04:54:01;100123.53;;;-6.38;73.26
30949;BME280;17637;51.984;21.208;2022-11-20T04:56:28;99860.44;;;-8.05;72.85
30949;BME280;17637;51.984;21.208;2022-11-20T04:58:55;98918.81;;;-14.74;72.38
30949;BME280;17637;51.984;21.208;2022-11-20T05:01:24;100103.72;;;-6.47;73.63
30949;BME280;17637;51.984;21.208;2022-11-20T05:03:51;99452.34;;;-10.24;73.29
30949;BME280;17637;51.984;21.208;2022-11-20T05:06:20;99991.38;;;-7.12;73.30
30949;BME280;17637;51.984;21.208;2022-11-20T05:08:48;99944.50;;;-7.47;72.86
30949;BME280;17637;51.984;21.208;2022-11-20T05:11:20;100092.97;;;-6.38;73.14
30949;BME280;17637;51.984;21.208;2022-11-20T05:13:48;99767.44;;;-8.27;72.77
30949;BME280;17637;51.984;21.208;2022-11-20T05:16:21;99960.75;;;-7.15;72.95
30949;BME280;17637;51.984;21.208;2022-11-20T05:18:50;99787.28;;;-8.15;72.74
30949;BME280;17637;51.984;21.208;2022-11-20T05:21:17;99577.31;;;-9.50;73.17
30949;BME280;17637;51.984;21.208;2022-11-20T05:23:46;99808.69;;;-8.07;73.04
30949;BME280;17637;51.984;21.208;2022-11-20T05:26:21;100087.00;;;-6.39;73.16
30949;BME280;17637;51.984;21.208;2022-11-20T05:28:49;99448.41;;;-10.16;72.69
30949;BME280;17637;51.984;21.208;2022-11-20T05:31:21;100095.56;;;-6.37;73.08
30949;BME280;17637;51.984;21.208;2022-11-20T05:33:54;100087.81;;;-6.40;72.74
30949;BME280;17637;51.984;21.208;2022-11-20T05:36:22;99715.03;;;-8.77;72.56
30949;BME280;17637;51.984;21.208;2022-11-20T05:38:49;99646.59;;;-9.26;72.54
30949;BME280;17637;51.984;21.208;2022-11-20T05:41:19;100089.22;;;-6.50;72.87
30949;BME280;17637;51.984;21.208;2022-11-20T05:43:48;100091.03;;;-6.46;72.98
30949;BME280;17637;51.984;21.208;2022-11-20T05:46:18;99995.06;;;-7.02;72.55
30949;BME280;17637;51.984;21.208;2022-11-20T05:48:53;99860.28;;;-7.84;72.46
30949;BME280;17637;51.984;21.208;2022-11-20T05:51:20;100085.88;;;-6.49;72.78
30949;BME280;17637;51.984;21.208;2022-11-20T05:53:48;100093.44;;;-6.50;72.83
30949;BME280;17637;51.984;21.208;2022-11-20T05:56:18;99631.13;;;-9.08;72.53
30949;BME280;17637;51.984;21.208;2022-11-20T05:58:46;99835.34;;;-7.94;72.85
30949;BME280;17637;51.984;21.208;2022-11-20T06:01:16;100072.28;;;-6.49;73.08
30949;BME280;17637;51.984;21.208;2022-11-20T06:03:44;100064.56;;;-6.51;72.96
30949;BME280;17637;51.984;21.208;2022-11-20T06:06:15;99926.47;;;-7.26;72.49
30949;BME280;17637;51.984;21.208;2022-11-20T06:08:43;99138.50;;;-12.04;72.14
30949;BME280;17637;51.984;21.208;2022-11-20T06:11:13;99896.44;;;-7.65;72.66
30949;BME280;17637;51.984;21.208;2022-11-20T06:13:41;100082.53;;;-6.46;72.29
30949;BME280;17637;51.984;21.208;2022-11-20T06:16:10;100131.81;;;-6.46;72.59
30949;BME280;17637;51.984;21.208;2022-11-20T06:18:38;100084.31;;;-6.44;72.49
30949;BME280;17637;51.984;21.208;2022-11-20T06:23:33;98686.81;;;-15.16;71.86
30949;BME280;17637;51.984;21.208;2022-11-20T06:26:02;100083.69;;;-6.36;72.25
30949;BME280;17637;51.984;21.208;2022-11-20T06:28:30;99388.31;;;-10.47;72.13
30949;BME280;17637;51.984;21.208;2022-11-20T06:30:58;99878.34;;;-7.75;72.37
30949;BME280;17637;51.984;21.208;2022-11-20T06:33:24;99930.28;;;-8.18;72.67
30949;BME280;17637;51.984;21.208;2022-11-20T06:35:52;99945.97;;;-7.54;72.48
30949;BME280;17637;51.984;21.208;2022-11-20T06:38:26;99224.09;;;-11.63;71.86
30949;BME280;17637;51.984;21.208;2022-11-20T06:40:54;99798.59;;;-8.05;72.91
30949;BME280;17637;51.984;21.208;2022-11-20T06:43:22;99742.28;;;-8.19;72.79
30949;BME280;17637;51.984;21.208;2022-11-20T06:45:53;100059.41;;;-6.25;72.88
30949;BME280;17637;51.984;21.208;2022-11-20T06:48:22;99393.88;;;-11.70;72.27
30949;BME280;17637;51.984;21.208;2022-11-20T06:50:49;98737.28;;;-14.47;72.00
30949;BME280;17637;51.984;21.208;2022-11-20T06:53:16;99761.88;;;-8.15;72.27
30949;BME280;17637;51.984;21.208;2022-11-20T06:55:45;100062.81;;;-5.93;72.53
30949;BME280;17637;51.984;21.208;2022-11-20T06:58:14;99822.38;;;-7.49;72.66
30949;BME280;17637;51.984;21.208;2022-11-20T07:00:41;99545.19;;;-8.98;71.90
30949;BME280;17637;51.984;21.208;2022-11-20T07:03:10;99453.94;;;-9.24;71.84
30949;BME280;17637;51.984;21.208;2022-11-20T07:05:37;99292.22;;;-10.46;72.00
30949;BME280;17637;51.984;21.208;2022-11-20T07:08:08;100067.69;;;-5.70;72.44
30949;BME280;17637;51.984;21.208;2022-11-20T07:10:35;100050.78;;;-5.67;72.29
30949;BME280;17637;51.984;21.208;2022-11-20T07:13:03;99547.81;;;-10.20;71.76
30949;BME280;17637;51.984;21.208;2022-11-20T07:15:30;100045.09;;;-5.57;72.02
30949;BME280;17637;51.984;21.208;2022-11-20T07:18:00;99620.75;;;-8.05;72.14
30949;BME280;17637;51.984;21.208;2022-11-20T07:20:27;100158.22;;;-5.85;72.01
30949;BME280;17637;51.984;21.208;2022-11-20T07:22:58;99826.03;;;-7.39;71.99
30949;BME280;17637;51.984;21.208;2022-11-20T07:25:26;98906.41;;;-13.22;71.42
30949;BME280;17637;51.984;21.208;2022-11-20T07:27:57;100052.69;;;-5.26;71.98
30949;BME280;17637;51.984;21.208;2022-11-20T07:30:26;99630.03;;;-9.16;71.79
30949;BME280;17637;51.984;21.208;2022-11-20T07:32:54;98891.47;;;-12.21;71.62
30949;BME280;17637;51.984;21.208;2022-11-20T07:35:23;98544.34;;;-14.06;71.41
30949;BME280;17637;51.984;21.208;2022-11-20T07:37:50;98314.63;;;-15.81;70.89
30949;BME280;17637;51.984;21.208;2022-11-20T07:40:18;99811.81;;;-6.40;71.85
30949;BME280;17637;51.984;21.208;2022-11-20T07:42:52;99777.47;;;-6.56;71.68
30949;BME280;17637;51.984;21.208;2022-11-20T07:45:21;99769.28;;;-6.76;71.54
30949;BME280;17637;51.984;21.208;2022-11-20T07:47:49;98733.38;;;-12.74;71.30
30949;BME280;17637;51.984;21.208;2022-11-20T07:50:17;99330.69;;;-9.19;71.68
30949;BME280;17637;51.984;21.208;2022-11-20T07:52:45;99855.59;;;-5.89;71.91
30949;BME280;17637;51.984;21.208;2022-11-20T07:55:12;98677.78;;;-12.78;71.24
30949;BME280;17637;51.984;21.208;2022-11-20T07:57:39;99802.22;;;-6.17;71.89
30949;BME280;17637;51.984;21.208;2022-11-20T08:00:08;100053.59;;;-4.53;71.87
30949;BME280;17637;51.984;21.208;2022-11-20T08:02:42;100050.38;;;-4.44;71.65
30949;BME280;17637;51.984;21.208;2022-11-20T08:05:09;100039.09;;;-4.53;71.82
30949;BME280;17637;51.984;21.208;2022-11-20T08:07:38;100040.56;;;-4.24;71.61
30949;BME280;17637;51.984;21.208;2022-11-20T08:10:06;99874.75;;;-5.33;71.64
30949;BME280;17637;51.984;21.208;2022-11-20T08:12:34;99775.78;;;-5.85;71.59
30949;BME280;17637;51.984;21.208;2022-11-20T08:15:20;99937.03;;;-4.86;71.39
30949;BME280;17637;51.984;21.208;2022-11-20T08:17:47;99910.88;;;-4.76;71.29
30949;BME280;17637;51.984;21.208;2022-11-20T08:20:35;100075.41;;;-3.89;71.77
30949;BME280;17637;51.984;21.208;2022-11-20T08:23:04;100024.34;;;-3.84;71.72
30949;BME280;17637;51.984;21.208;2022-11-20T08:25:37;100038.13;;;-3.77;71.50
30949;BME280;17637;51.984;21.208;2022-11-20T08:28:07;100035.66;;;-3.73;71.34
30949;BME280;17637;51.984;21.208;2022-11-20T08:30:45;100048.38;;;-3.77;71.70
30949;BME280;17637;51.984;21.208;2022-11-20T08:33:13;99932.22;;;-4.33;71.59
30949;BME280;17637;51.984;21.208;2022-11-20T08:35:39;99366.16;;;-7.59;71.08
30949;BME280;17637;51.984;21.208;2022-11-20T08:38:08;99838.44;;;-4.79;71.51
30949;BME280;17637;51.984;21.208;2022-11-20T08:40:35;99911.22;;;-4.15;71.38
30949;BME280;17637;51.984;21.208;2022-11-20T08:43:02;99669.38;;;-5.52;71.21
30949;BME280;17637;51.984;21.208;2022-11-20T08:45:29;99792.78;;;-4.64;71.33
30949;BME280;17637;51.984;21.208;2022-11-20T08:48:00;100026.41;;;-3.17;71.80
30949;BME280;17637;51.984;21.208;2022-11-20T08:50:28;99762.19;;;-5.05;71.54
30949;BME280;17637;51.984;21.208;2022-11-20T08:53:02;100062.81;;;-3.32;71.11
30949;BME280;17637;51.984;21.208;2022-11-20T08:55:29;99598.09;;;-5.45;70.89
30949;BME280;17637;51.984;21.208;2022-11-20T08:57:56;99611.78;;;-5.40;71.44
30949;BME280;17637;51.984;21.208;2022-11-20T09:00:23;99995.03;;;-3.03;70.90
30949;BME280;17637;51.984;21.208;2022-11-20T09:02:50;99777.50;;;-4.11;70.92
30949;BME280;17637;51.984;21.208;2022-11-20T09:05:18;99891.22;;;-3.38;71.33
30949;BME280;17637;51.984;21.208;2022-11-20T09:07:45;99990.50;;;-2.64;70.81
30949;BME280;17637;51.984;21.208;2022-11-20T09:10:12;98973.41;;;-8.72;70.33
30949;BME280;17637;51.984;21.208;2022-11-20T09:12:54;99858.84;;;-3.33;71.02
30949;BME280;17637;51.984;21.208;2022-11-20T09:15:22;99864.19;;;-3.19;70.54
30949;BME280;17637;51.984;21.208;2022-11-20T09:17:51;99707.72;;;-4.03;70.54
30949;BME280;17637;51.984;21.208;2022-11-20T09:20:19;99478.31;;;-5.37;70.64
30949;BME280;17637;51.984;21.208;2022-11-20T09:22:46;99574.53;;;-4.80;70.41
30949;BME280;17637;51.984;21.208;2022-11-20T09:25:13;99973.75;;;-2.38;70.63
30949;BME280;17637;51.984;21.208;2022-11-20T09:27:40;99923.69;;;-2.75;70.75
30949;BME280;17637;51.984;21.208;2022-11-20T09:30:15;99788.78;;;-3.41;70.86
30949;BME280;17637;51.984;21.208;2022-11-20T09:32:42;99482.84;;;-5.19;70.63
30949;BME280;17637;51.984;21.208;2022-11-20T09:35:10;99962.03;;;-2.17;70.47
30949;BME280;17637;51.984;21.208;2022-11-20T09:37:37;99597.06;;;-4.53;69.97
30949;BME280;17637;51.984;21.208;2022-11-20T09:40:05;99626.56;;;-4.17;70.08
30949;BME280;17637;51.984;21.208;2022-11-20T09:42:45;99639.41;;;-4.12;70.01
30949;BME280;17637;51.984;21.208;2022-11-20T09:45:24;99968.16;;;-2.03;70.65
30949;BME280;17637;51.984;21.208;2022-11-20T09:53:20;99961.56;;;-1.81;70.49
30949;BME280;17637;51.984;21.208;2022-11-20T09:55:51;99986.41;;;-1.77;70.24
30949;BME280;17637;51.984;21.208;2022-11-20T09:58:45;99953.88;;;-1.82;70.32
30949;BME280;17637;51.984;21.208;2022-11-20T10:01:19;99959.94;;;-1.71;69.90
30949;BME280;17637;51.984;21.208;2022-11-20T10:03:56;99950.50;;;-1.74;69.59
30949;BME280;17637;51.984;21.208;2022-11-20T10:06:41;99650.50;;;-3.46;69.45
30949;BME280;17637;51.984;21.208;2022-11-20T10:19:45;99874.25;;;-1.90;69.61
30949;BME280;17637;51.984;21.208;2022-11-20T10:22:53;99936.25;;;-1.44;69.17
30949;BME280;17637;51.984;21.208;2022-11-20T10:25:38;99937.16;;;-1.36;69.03
30949;BME280;17637;51.984;21.208;2022-11-20T10:31:02;99926.97;;;-1.25;68.98
30949;BME280;17637;51.984;21.208;2022-11-20T10:33:33;99918.47;;;-1.18;69.20
30949;BME280;17637;51.984;21.208;2022-11-20T10:36:28;99642.63;;;-2.84;68.96
30949;BME280;17637;51.984;21.208;2022-11-20T10:39:01;99658.38;;;-3.28;68.50
30949;BME280;17637;51.984;21.208;2022-11-20T10:41:34;99964.50;;;-1.41;68.35
30949;BME280;17637;51.984;21.208;2022-11-20T10:44:22;99912.50;;;-1.09;68.68
30949;BME280;17637;51.984;21.208;2022-11-20T10:47:14;99933.06;;;-1.11;68.55
30949;BME280;17637;51.984;21.208;2022-11-20T10:49:53;99935.69;;;-1.03;68.85
30949;BME280;17637;51.984;21.208;2022-11-20T10:52:58;99909.16;;;-0.97;68.72
30949;BME280;17637;51.984;21.208;2022-11-20T10:55:42;99910.00;;;-1.03;68.84
30949;BME280;17637;51.984;21.208;2022-11-20T10:58:17;99914.03;;;-1.36;68.51
30949;BME280;17637;51.984;21.208;2022-11-20T11:00:48;99924.63;;;-0.93;68.87
30949;BME280;17637;51.984;21.208;2022-11-20T11:03:29;99753.72;;;-1.75;68.38
30949;BME280;17637;51.984;21.208;2022-11-20T11:06:07;99762.38;;;-1.63;68.53
30949;BME280;17637;51.984;21.208;2022-11-20T11:08:38;99907.53;;;-0.83;68.78
30949;BME280;17637;51.984;21.208;2022-11-20T11:11:32;99715.91;;;-2.00;68.21
30949;BME280;17637;51.984;21.208;2022-11-20T11:14:11;99904.97;;;-0.81;68.66
30949;BME280;17637;51.984;21.208;2022-11-20T11:16:51;99904.13;;;-0.83;68.33
30949;BME280;17637;51.984;21.208;2022-11-20T11:19:18;99749.34;;;-1.88;68.47
30949;BME280;17637;51.984;21.208;2022-11-20T11:21:47;99930.72;;;-0.77;68.39
30949;BME280;17637;51.984;21.208;2022-11-20T11:24:27;99899.84;;;-0.75;68.48
30949;BME280;17637;51.984;21.208;2022-11-20T11:27:14;99610.44;;;-2.46;68.51
30949;BME280;17637;51.984;21.208;2022-11-20T11:29:47;99909.34;;;-0.60;68.11
30949;BME280;17637;51.984;21.208;2022-11-20T11:32:18;99898.22;;;-0.61;67.97
30949;BME280;17637;51.984;21.208;2022-11-20T11:35:02;99893.09;;;-0.62;67.98
30949;BME280;17637;51.984;21.208;2022-11-20T11:37:34;99894.78;;;-0.58;68.16
30949;BME280;17637;51.984;21.208;2022-11-20T11:40:04;99613.16;;;-2.25;67.68
30949;BME280;17637;51.984;21.208;2022-11-20T11:42:58;99893.94;;;-0.56;67.64
30949;BME280;17637;51.984;21.208;2022-11-20T11:45:27;99662.09;;;-1.94;67.70
30949;BME280;17637;51.984;21.208;2022-11-20T11:47:57;99904.28;;;-0.47;67.71
30949;BME280;17637;51.984;21.208;2022-11-20T11:50:29;99887.13;;;-0.45;67.49
30949;BME280;17637;51.984;21.208;2022-11-20T11:53:13;99886.25;;;-0.48;67.81
30949;BME280;17637;51.984;21.208;2022-11-20T12:01:00;99697.38;;;-1.50;67.35
30949;BME280;17637;51.984;21.208;2022-11-20T12:03:35;99483.78;;;-2.84;67.02
30949;BME280;17637;51.984;21.208;2022-11-20T12:06:11;98479.28;;;-8.88;66.46
30949;BME280;17637;51.984;21.208;2022-11-20T12:08:54;99877.75;;;-0.33;67.36
30949;BME280;17637;51.984;21.208;2022-11-20T12:12:05;99687.13;;;-1.50;67.08
30949;BME280;17637;51.984;21.208;2022-11-20T12:14:37;99668.22;;;-1.70;67.03
30949;BME280;17637;51.984;21.208;2022-11-20T12:17:09;99368.09;;;-3.47;66.88
30949;BME280;17637;51.984;21.208;2022-11-20T12:19:37;99467.41;;;-3.04;66.71
30949;BME280;17637;51.984;21.208;2022-11-20T12:22:40;99866.63;;;-0.28;66.98
30949;BME280;17637;51.984;21.208;2022-11-20T12:25:22;99718.06;;;-1.13;67.04
30949;BME280;17637;51.984;21.208;2022-11-20T12:30:41;99736.97;;;-1.02;67.31
30949;BME280;17637;51.984;21.208;2022-11-20T12:33:43;99762.69;;;-0.96;67.42
30949;BME280;17637;51.984;21.208;2022-11-20T12:36:43;99499.28;;;-2.58;67.53
30949;BME280;17637;51.984;21.208;2022-11-20T12:39:20;99250.44;;;-4.54;67.48
30949;BME280;17637;51.984;21.208;2022-11-20T12:42:05;99845.13;;;-0.42;67.93
30949;BME280;17637;51.984;21.208;2022-11-20T12:45:20;99821.94;;;-0.59;67.73
30949;BME280;17637;51.984;21.208;2022-11-20T12:48:14;99840.84;;;-0.45;68.03
30949;BME280;17637;51.984;21.208;2022-11-20T12:51:03;99848.53;;;-0.46;68.27
30949;BME280;17637;51.984;21.208;2022-11-20T12:53:55;99841.69;;;-0.52;68.79
30949;BME280;17637;51.984;21.208;2022-11-20T12:59:27;99341.53;;;-3.67;69.14
30949;BME280;17637;51.984;21.208;2022-11-20T13:02:30;99832.16;;;-0.79;70.00
30949;BME280;17637;51.984;21.208;2022-11-20T13:07:47;99828.72;;;-0.81;70.27
30949;BME280;17637;51.984;21.208;2022-11-20T13:13:12;99849.22;;;-0.93;70.67
30949;BME280;17637;51.984;21.208;2022-11-20T13:18:21;99829.47;;;-1.02;70.60
30949;BME280;17637;51.984;21.208;2022-11-20T13:20:48;99844.16;;;-0.79;70.72
30949;BME280;17637;51.984;21.208;2022-11-20T13:23:26;99815.00;;;-0.83;70.80
30949;BME280;17637;51.984;21.208;2022-11-20T13:26:17;99821.84;;;-0.91;70.73
30949;BME280;17637;51.984;21.208;2022-11-20T13:28:47;99771.13;;;-1.24;70.57
30949;BME280;17637;51.984;21.208;2022-11-20T13:31:34;99824.41;;;-0.91;70.65
30949;BME280;17637;51.984;21.208;2022-11-20T13:34:05;99789.94;;;-1.25;70.82
30949;BME280;17637;51.984;21.208;2022-11-20T13:36:34;99549.56;;;-2.75;70.54
30949;BME280;17637;51.984;21.208;2022-11-20T13:39:03;99657.84;;;-1.87;70.84
30949;BME280;17637;51.984;21.208;2022-11-20T13:41:33;99791.75;;;-1.06;70.87
30949;BME280;17637;51.984;21.208;2022-11-20T13:44:14;99668.81;;;-2.07;71.10
30949;BME280;17637;51.984;21.208;2022-11-20T13:46:45;99505.13;;;-2.83;70.95
30949;BME280;17637;51.984;21.208;2022-11-20T13:49:32;99822.53;;;-1.18;71.25
30949;BME280;17637;51.984;21.208;2022-11-20T13:58:00;99631.03;;;-2.36;71.72
30949;BME280;17637;51.984;21.208;2022-11-20T14:00:28;99775.13;;;-1.73;71.73
30949;BME280;17637;51.984;21.208;2022-11-20T14:05:36;99564.09;;;-2.79;71.65
30949;BME280;17637;51.984;21.208;2022-11-20T14:08:11;99794.13;;;-1.44;71.63